Time;durP1;ratioP1;P1;durP2;ratioP2;P2;SDS_P1;SDS_P2;PMS_P1;PMS_P2;Temp;Humidity;BMP_temperature;BMP_pressure;BME280_temperature;BME280_humidity;BME280_pressure;Samples;Min_cycle;Max_cycle;Signal;HPM_P1;HPM_P2
2023/02/16 20:30:19;;;;;;;4.70;2.20;;;7.40;68.50;;;;;;4208431;28;20582;-69
2023/02/16 20:32:24;;;;;;;4.57;3.30;;;6.90;68.70;;;;;;4192898;28;20199;-73
2023/02/16 20:34:26;;;;;;;11.67;4.30;;;7.20;68.60;;;;;;4193508;28;20204;-68
2023/02/16 20:36:27;;;;;;;12.33;4.53;;;7.40;65.90;;;;;;4188670;28;20195;-69
2023/02/16 20:38:27;;;;;;;8.20;4.13;;;7.60;64.90;;;;;;4189715;28;20531;-68
2023/02/16 20:40:28;;;;;;;5.47;3.47;;;7.70;64.30;;;;;;4186512;28;20729;-68
2023/02/16 20:42:29;;;;;;;6.37;3.30;;;7.80;63.80;;;;;;4184732;28;20569;-68
2023/02/16 20:44:29;;;;;;;4.53;3.10;;;8.00;62.80;;;;;;4187159;28;20184;-68
2023/02/16 20:46:31;;;;;;;13.53;6.70;;;8.10;62.20;;;;;;4188073;28;20188;-68
2023/02/16 20:48:32;;;;;;;5.87;3.83;;;8.00;61.70;;;;;;4193938;28;20702;-67
2023/02/16 20:50:33;;;;;;;7.87;3.33;;;8.00;61.70;;;;;;4189226;28;20297;-67
2023/02/16 20:52:34;;;;;;;5.57;3.17;;;8.10;61.10;;;;;;4189681;28;20198;-67
2023/02/16 20:54:36;;;;;;;4.33;2.57;;;8.20;60.80;;;;;;4189995;28;20215;-67
2023/02/16 20:56:37;;;;;;;3.83;2.47;;;8.30;59.80;;;;;;4192157;28;20565;-67
2023/02/16 20:58:38;;;;;;;6.37;3.03;;;8.40;59.90;;;;;;4191178;28;20627;-67
2023/02/16 21:00:42;;;;;;;2.93;2.20;;;8.30;59.60;;;;;;4190576;28;20222;-66
2023/02/16 21:02:42;;;;;;;3.60;2.30;;;8.40;60.10;;;;;;4189669;28;20723;-67
2023/02/16 21:04:43;;;;;;;2.33;2.03;;;8.40;59.50;;;;;;4189080;28;20219;-67
2023/02/16 21:06:44;;;;;;;3.93;2.50;;;8.40;59.40;;;;;;4188798;28;20194;-68
2023/02/16 21:08:45;;;;;;;4.07;2.53;;;8.50;59.50;;;;;;4185978;28;20745;-67
2023/02/16 21:10:46;;;;;;;4.17;2.53;;;8.50;59.10;;;;;;4189184;28;20171;-69
2023/02/16 21:12:46;;;;;;;3.27;2.10;;;8.50;59.70;;;;;;4191755;28;20715;-68
2023/02/16 21:14:47;;;;;;;4.60;2.10;;;8.50;59.50;;;;;;4192030;28;20237;-68
2023/02/16 21:16:48;;;;;;;6.43;2.50;;;8.50;59.00;;;;;;4192247;28;20183;-67
2023/02/16 21:18:49;;;;;;;8.17;3.17;;;8.50;58.90;;;;;;4190079;28;20329;-67
2023/02/16 21:20:50;;;;;;;3.90;2.13;;;8.50;59.10;;;;;;4188485;28;20266;-68
2023/02/16 21:22:51;;;;;;;3.50;2.30;;;8.50;59.10;;;;;;4189151;28;20182;-67
2023/02/16 21:24:52;;;;;;;3.73;2.30;;;8.50;58.60;;;;;;4184465;28;20191;-69
2023/02/16 21:26:52;;;;;;;3.90;2.10;;;8.50;58.70;;;;;;4186737;28;20270;-67
2023/02/16 21:28:53;;;;;;;3.10;2.27;;;8.50;58.90;;;;;;4186676;28;20251;-68
2023/02/16 21:30:55;;;;;;;5.17;2.70;;;8.60;58.60;;;;;;4185060;28;20194;-68
2023/02/16 21:32:56;;;;;;;4.73;2.40;;;8.60;58.40;;;;;;4191318;28;20221;-68
2023/02/16 21:34:56;;;;;;;4.70;2.60;;;8.60;58.20;;;;;;4190002;28;20709;-67
2023/02/16 21:36:57;;;;;;;4.63;2.50;;;8.60;58.10;;;;;;4192640;28;20198;-68
2023/02/16 21:39:01;;;;;;;3.67;2.30;;;8.70;57.90;;;;;;4187442;28;20220;-66
2023/02/16 21:41:24;;;;;;;4.03;2.60;;;8.70;58.30;;;;;;4179221;28;20567;-67
2023/02/16 21:43:24;;;;;;;4.90;2.60;;;8.60;58.50;;;;;;4179239;28;20249;-67
2023/02/16 21:45:25;;;;;;;4.87;2.37;;;8.70;58.90;;;;;;4178343;28;20188;-67
2023/02/16 21:49:45;;;;;;;3.80;2.30;;;8.80;58.60;;;;;;4176768;28;20355;-67
2023/02/16 21:51:47;;;;;;;4.53;2.50;;;8.70;59.40;;;;;;4176273;28;20607;-66
2023/02/16 21:53:49;;;;;;;3.83;2.30;;;8.60;60.30;;;;;;4175729;28;20188;-67
2023/02/16 21:58:09;;;;;;;4.70;3.03;;;8.70;60.50;;;;;;4173920;28;20250;-66
2023/02/16 22:00:14;;;;;;;3.93;2.50;;;8.70;61.80;;;;;;4180349;28;20748;-67
2023/02/16 22:02:15;;;;;;;3.37;2.20;;;8.70;62.80;;;;;;4180524;28;20184;-67
2023/02/16 22:04:20;;;;;;;3.30;2.13;;;8.60;63.50;;;;;;4180620;28;20195;-68
2023/02/16 22:06:23;;;;;;;4.57;1.97;;;8.50;64.10;;;;;;4176801;28;20179;-68
2023/02/16 22:08:23;;;;;;;2.23;1.87;;;8.50;64.70;;;;;;4176752;28;20563;-68
2023/02/16 22:10:27;;;;;;;4.47;2.50;;;8.40;66.00;;;;;;4171841;28;20198;-66
2023/02/16 22:12:28;;;;;;;4.13;2.43;;;8.30;66.80;;;;;;4176371;28;20238;-67
2023/02/16 22:14:28;;;;;;;4.27;1.90;;;8.20;67.50;;;;;;4176128;28;20189;-67
2023/02/16 22:16:31;;;;;;;3.87;2.03;;;8.20;67.60;;;;;;4175628;28;20539;-68
2023/02/16 22:18:31;;;;;;;2.90;1.80;;;8.20;68.00;;;;;;4174771;28;20204;-67
2023/02/16 22:20:32;;;;;;;3.03;2.20;;;8.10;67.70;;;;;;4173766;28;20184;-67
2023/02/16 22:22:33;;;;;;;3.77;2.17;;;8.10;68.30;;;;;;4172021;28;20196;-67
2023/02/16 22:24:34;;;;;;;3.83;2.30;;;8.10;68.80;;;;;;4174652;28;20196;-69
2023/02/16 22:26:35;;;;;;;5.43;2.23;;;8.10;68.80;;;;;;4180229;28;20188;-67
2023/02/16 22:28:36;;;;;;;7.53;2.30;;;8.10;69.10;;;;;;4179205;28;20267;-67
2023/02/16 22:30:37;;;;;;;2.97;2.33;;;8.10;70.10;;;;;;4179052;28;20181;-67
2023/02/16 22:32:37;;;;;;;3.97;1.87;;;8.10;69.10;;;;;;4178285;28;20282;-67
2023/02/16 22:34:38;;;;;;;4.57;2.33;;;8.10;69.50;;;;;;4177800;28;20247;-66
2023/02/16 22:36:39;;;;;;;4.90;2.27;;;8.10;69.40;;;;;;4182353;28;20665;-67
2023/02/16 22:38:43;;;;;;;4.23;2.37;;;8.10;69.90;;;;;;4175562;28;20219;-66
2023/02/16 22:40:44;;;;;;;4.73;2.57;;;8.10;70.70;;;;;;4171740;28;20655;-66
2023/02/16 22:42:44;;;;;;;2.70;2.03;;;8.00;72.10;;;;;;4174967;28;20199;-67
2023/02/16 22:44:45;;;;;;;3.60;2.27;;;7.90;72.90;;;;;;4174151;28;20276;-66
2023/02/16 22:46:46;;;;;;;5.67;2.53;;;7.90;73.80;;;;;;4173593;28;20187;-67
2023/02/16 22:48:46;;;;;;;3.40;2.10;;;7.80;75.10;;;;;;4176695;28;20218;-67
2023/02/16 22:50:57;;;;;;;4.47;2.40;;;7.80;75.80;;;;;;4179911;28;20180;-67
2023/02/16 22:52:58;;;;;;;4.57;2.20;;;7.80;76.40;;;;;;4176758;28;20670;-66
2023/02/16 22:54:59;;;;;;;5.87;2.60;;;7.80;77.20;;;;;;4175994;28;20180;-66
2023/02/16 22:57:00;;;;;;;3.73;2.30;;;7.80;77.90;;;;;;4177867;28;20237;-66
2023/02/16 22:59:00;;;;;;;6.93;2.40;;;7.60;78.60;;;;;;4175582;28;20210;-66
2023/02/16 23:01:02;;;;;;;4.27;2.40;;;7.60;78.70;;;;;;4175289;28;20299;-68
2023/02/16 23:03:03;;;;;;;4.43;2.20;;;7.60;78.90;;;;;;4175421;28;20184;-67
2023/02/16 23:05:04;;;;;;;3.83;3.00;;;7.60;78.60;;;;;;4174750;28;20694;-67
2023/02/16 23:07:05;;;;;;;4.37;2.57;;;7.70;78.00;;;;;;4173122;28;20223;-68
2023/02/16 23:09:17;;;;;;;6.10;2.40;;;7.70;78.50;;;;;;4172996;28;20204;-67
2023/02/16 23:11:18;;;;;;;6.50;2.40;;;7.70;78.50;;;;;;4171420;28;20211;-66
2023/02/16 23:13:19;;;;;;;3.97;2.47;;;7.60;79.00;;;;;;4180303;28;20238;-67
2023/02/16 23:15:19;;;;;;;3.83;2.13;;;7.60;79.30;;;;;;4179830;28;20187;-67
2023/02/16 23:17:20;;;;;;;4.23;2.60;;;7.60;79.60;;;;;;4179072;28;20663;-66
2023/02/16 23:19:24;;;;;;;6.53;2.60;;;7.60;80.00;;;;;;4177715;28;20230;-67
2023/02/16 23:21:29;;;;;;;5.47;2.60;;;7.60;80.40;;;;;;4175968;28;20703;-67
2023/02/16 23:23:30;;;;;;;4.10;2.50;;;7.60;80.60;;;;;;4175433;28;20188;-66
2023/02/16 23:25:33;;;;;;;4.60;2.17;;;7.60;80.30;;;;;;4175770;28;20188;-66
2023/02/16 23:27:34;;;;;;;5.30;2.30;;;7.60;80.30;;;;;;4174924;28;20187;-66
2023/02/16 23:29:35;;;;;;;3.53;2.40;;;7.60;80.20;;;;;;4173655;28;20719;-67
2023/02/16 23:31:39;;;;;;;4.00;2.30;;;7.60;80.10;;;;;;4172997;28;20271;-66
2023/02/16 23:33:39;;;;;;;8.20;2.60;;;7.60;80.30;;;;;;4172274;28;20267;-68
2023/02/16 23:35:41;;;;;;;4.93;2.20;;;7.60;79.70;;;;;;4171539;28;20555;-67
2023/02/16 23:37:42;;;;;;;4.13;2.50;;;7.60;79.80;;;;;;4175666;28;20181;-66
2023/02/16 23:39:42;;;;;;;3.27;2.43;;;7.60;79.40;;;;;;4171847;28;20231;-67
2023/02/16 23:41:44;;;;;;;4.47;2.47;;;7.60;79.10;;;;;;4175321;28;20192;-65
2023/02/16 23:43:44;;;;;;;6.00;2.63;;;7.70;79.10;;;;;;4174594;28;20200;-66
2023/02/16 23:45:45;;;;;;;4.03;2.37;;;7.60;78.40;;;;;;4176330;28;20250;-66
2023/02/16 23:47:46;;;;;;;3.67;2.30;;;7.70;78.40;;;;;;4175537;28;20685;-67
2023/02/16 23:49:47;;;;;;;5.03;2.10;;;7.60;78.50;;;;;;4174800;28;20271;-68
2023/02/16 23:51:47;;;;;;;4.40;2.40;;;7.60;78.60;;;;;;4173139;28;20196;-68
2023/02/16 23:53:48;;;;;;;9.80;2.53;;;7.70;78.50;;;;;;4173114;28;20987;-67
2023/02/16 23:56:00;;;;;;;7.57;3.10;;;7.60;78.70;;;;;;4172791;28;20207;-67
2023/02/16 23:58:00;;;;;;;8.20;3.17;;;7.60;79.10;;;;;;4170327;28;20187;-66
